ADDS METAR Data INFO
IDs: Format: Raw Decoded Include TAF

Data at: 0032 UTC 17 Dec 2017

PAGS 162356Z AUTO 11007KT 10SM -RA OVC012 04/03 A2946 RMK AO2 SLP976 P0000 60002 T00440033 10050 20044 53008
PAGS 162309Z AUTO 13006KT 10SM -RA BKN012 04/04 A2946 RMK AO2 P0000
PAGS 162300Z AUTO 13006KT 3SM -RA BR SCT010 BKN017 04/04 A2946 RMK AO2 P0000
PAGS 162256Z AUTO 13007KT 2SM -RA BR SCT010 04/04 A2945 RMK AO2 VIS 1 1/2V5 SLP974 P0001 T00440039
PAGS 162244Z AUTO 15003KT 1 1/2SM -RA BR FEW010 SCT016 04/04 A2946 RMK AO2 P0000
PAGS 162237Z AUTO 16005KT 1 3/4SM -RA BR FEW010 BKN016 04/03 A2945 RMK AO2 VIS 1 1/4V5 P0000
PAGS 162206Z AUTO 12011KT 10SM -RA SCT014 BKN021 OVC041 04/03 A2943 RMK AO2 P0000
PAGS 162156Z AUTO 12012KT 6SM -RA BR BKN014 BKN039 OVC090 04/03 A2944 RMK AO2 RAB29 SLP968 P0001 T00440033
PAGS 162133Z AUTO 13013KT 9SM -RA BKN013 OVC020 04/03 A2944 RMK AO2 RAB29 P0000
PAGS 162056Z AUTO 12014KT 10SM OVC022 05/03 A2943 RMK AO2 RAE29 SLP968 P0000 60000 T00500033 50000
PAGS 161956Z AUTO 14013G17KT 10SM -RA OVC025 04/03 A2945 RMK AO2 RAB24 SLP972 P0000 T00440028
PAGS 161922Z AUTO 14011KT 10SM OVC029 05/03 A2945 RMK AO2
PAGS 161856Z AUTO 14012KT 10SM OVC031 05/03 A2944 RMK AO2 PK WND 13029/1802 RAE15 SLP970 P0000 T00500028
PAGS 161756Z AUTO 14019G28KT 10SM -RA BKN041 OVC050 04/02 A2943 RMK AO2 PK WND 13030/1729 RAB16 SLP967 P0000 60013 T00440022 10044 20039 56023
PAGS 161656Z AUTO 14023G30KT 10SM BKN042 OVC049 04/02 A2944 RMK AO2 PK WND 13032/1639 RAE20 SLP970 P0000 T00440017
PAGS 161556Z AUTO 14021G28KT 10SM -RA BKN050 BKN065 OVC110 04/02 A2946 RMK AO2 PK WND 14028/1553 SLP978 P0001 T00440017
PAGS 161510Z AUTO 14018G22KT 10SM -RA SCT019 BKN070 OVC110 04/02 A2949 RMK AO2 P0001
PAGS 161456Z AUTO 12019G25KT 10SM -RA BKN015 BKN025 OVC120 04/02 A2950 RMK AO2 SLP990 P0002 60012 T00390017 56035
PAGS 161438Z AUTO 14016G24KT 10SM -RA SCT015 BKN027 OVC110 04/02 A2951 RMK AO2 P0001
PAGS 161424Z AUTO 14015G23KT 10SM -RA FEW015 SCT029 OVC110 04/02 A2952 RMK AO2 P0000
PAGS 161415Z AUTO 14014G24KT 10SM -RA FEW015 BKN027 OVC110 04/02 A2953 RMK AO2 P0000
PAGS 161356Z AUTO 14018G30KT 10SM -RA SCT027 SCT085 OVC110 04/02 A2952 RMK AO2 PK WND 14030/1348 SLP998 P0002 T00440017
PAGS 161333Z AUTO 14019G26KT 10SM -RA SCT018 BKN029 OVC110 04/02 A2953 RMK AO2 PK WND 11026/1327 P0001
PAGS 161256Z AUTO 14014G26KT 10SM -RA SCT018 BKN060 OVC120 04/02 A2957 RMK AO2 PK WND 13031/1236 SLP013 P0008 T00440022
PAGS 161156Z AUTO 14017G26KT 10SM -RA BKN016 BKN027 OVC110 04/02 A2960 RMK AO2 PK WND 14026/1152 SLP025 P0002 60007 70010 T00440017 10050 20039 58050
PAGS 161056Z AUTO 13016G25KT 9SM -RA BKN021 OVC110 04/02 A2967 RMK AO2 SLP047 P0004 T00440017
PAGS 161046Z AUTO 12015G25KT 7SM -RA BKN021 BKN110 04/02 A2968 RMK AO2 P0003
PAGS 160956Z AUTO 13014G22KT 10SM -RA SCT025 SCT034 BKN100 04/02 A2970 RMK AO2 SLP059 P0001 T00440017
PAGS 160856Z AUTO 13014G22KT 10SM -RA FEW029 BKN050 OVC110 05/02 A2975 RMK AO2 RAB15 PRESFR SLP075 P0000 60000 T00500017 400500022 58051
PAGS 160756Z AUTO 13012KT 10SM FEW035 BKN070 OVC090 05/01 A2981 RMK AO2 SLP095 T00500006
PAGS 160656Z AUTO 12009KT 10SM BKN050 OVC100 04/01 A2985 RMK AO2 SLP108 T00440006
PAGS 160556Z AUTO 14011KT 10SM SCT120 04/01 A2990 RMK AO2 SLP127 T00440011 10044 20028 58027
PAGS 160456Z AUTO 13005KT 10SM OVC036 03/01 A2993 RMK AO2 SLP136 T00330011
PAGS 160356Z AUTO 13008KT 10SM BKN041 BKN050 03/02 A2996 RMK AO2 SLP147 T00330017
PAGS 160256Z AUTO 15005KT 10SM CLR 03/01 A2998 RMK AO2 SLP154 T00330011 56013
PAGS 160156Z AUTO 15006KT 10SM CLR 03/02 A3000 RMK AO2 SLP158 T00280017
PAGS 160056Z AUTO 12008KT 10SM FEW009 BKN031 03/02 A3000 RMK AO2 SLP161 T00330017
PAGS 160028Z AUTO 12009KT 10SM FEW009 BKN029 OVC050 03/02 A3000 RMK AO2
PAGS 152356Z AUTO 10005KT 10SM BKN033 OVC040 03/02 A3002 RMK AO2 SLP167 60000 T00330022 10039 20022 51008
PAGS 152256Z AUTO 12007KT 10SM FEW032 BKN042 04/02 A3001 RMK AO2 RAB09E21 SLP161 P0000 T00390022
PAGS 152240Z AUTO 09005KT 10SM SCT027 OVC040 04/03 A3001 RMK AO2 RAB09E21 P0000
PAGS 152156Z AUTO 13006KT 10SM BKN025 OVC045 04/02 A3002 RMK AO2 SLP165 T00390022
PAGS 152133Z AUTO 00000KT 10SM FEW008 OVC025 04/02 A3001 RMK AO2
PAGS 152056Z AUTO 13006KT 10SM OVC025 04/02 A3000 RMK AO2 SLP158 T00390022 51013
PAGS 151956Z AUTO 00000KT 10SM FEW007 BKN025 03/02 A2998 RMK AO2 SLP154 T00280022
PAGS 151949Z AUTO 00000KT 10SM FEW007 BKN027 BKN036 03/02 A2999 RMK AO2
PAGS 151931Z AUTO 09003KT 10SM SCT019 SCT027 BKN036 03/02 A2998 RMK AO2
PAGS 151856Z AUTO 02003KT 10SM OVC021 02/02 A2999 RMK AO2 SLP156 T00220022 FZRANO
PAGS 151756Z AUTO 16003KT 10SM OVC023 03/02 A2996 RMK AO2 SLP146 60003 T00280022 10039 20022 51015
PAGS 151705Z AUTO 00000KT 10SM BKN020 BKN030 OVC080 03/02 A2995 RMK AO2
PAGS 151656Z AUTO 13005KT 10SM SCT018 BKN030 OVC080 03/02 A2994 RMK AO2 RAE01 SLP140 P0000 T00280017
PAGS 151556Z AUTO 17003KT 10SM -RA SCT025 BKN034 OVC043 03/02 A2994 RMK AO2 RAB30 SLP138 P0000 T00330022
PAGS 151546Z AUTO 14007KT 10SM -RA FEW009 BKN034 OVC043 03/02 A2992 RMK AO2 RAB30 P0000
PAGS 151541Z AUTO 13008KT 10SM -RA SCT024 BKN029 OVC043 03/02 A2992 RMK AO2 RAB30 P0000
PAGS 151526Z AUTO 14009KT 10SM FEW017 BKN030 OVC036 04/02 A2992 RMK AO2
PAGS 151506Z AUTO 13003KT 10SM SCT015 BKN019 OVC030 03/02 A2992 RMK AO2
PAGS 151456Z AUTO 00000KT 10SM BKN013 OVC024 03/02 A2992 RMK AO2 RAE00 SLP131 P0000 60003 T00330022 53000
PAGS 151356Z AUTO 14005KT 10SM -RA BKN021 OVC046 03/02 A2991 RMK AO2 SLP129 P0002 T00280017
PAGS 151318Z AUTO 13006KT 10SM -RA FEW009 BKN027 OVC037 03/02 A2992 RMK AO2 P0001
PAGS 151256Z AUTO 11005KT 10SM -RA FEW013 BKN023 OVC041 03/02 A2992 RMK AO2 UPB06E10 SLP131 P0001 T00280017